createdAt,value
2022-12-29T00:00:55.579Z,100750.34
2022-12-29T00:03:58.640Z,100747.28
2022-12-29T00:07:07.858Z,100744.25
2022-12-29T00:10:10.682Z,100743.72
2022-12-29T00:13:31.879Z,100744.75
2022-12-29T00:16:36.196Z,100739.66
2022-12-29T00:19:57.744Z,100738.34
2022-12-29T00:23:18.845Z,100735.59
2022-12-29T00:26:39.892Z,100733.84
2022-12-29T00:30:01.340Z,100736.38
2022-12-29T00:33:36.222Z,100724.16
2022-12-29T00:36:40.917Z,100713.09
2022-12-29T00:40:01.890Z,100720.59
2022-12-29T00:43:23.177Z,100723.41
2022-12-29T00:46:25.808Z,100724.63
2022-12-29T00:49:31.528Z,100720.28
2022-12-29T00:52:34.075Z,100729.28
2022-12-29T00:55:40.083Z,100728.37
2022-12-29T00:58:43.107Z,100736.22
2022-12-29T01:01:46.587Z,100738.75
2022-12-29T01:04:49.517Z,100744.69
2022-12-29T01:07:52.419Z,100743.50
2022-12-29T01:11:09.933Z,100739.72
2022-12-29T01:14:12.881Z,100756.38
2022-12-29T01:17:15.504Z,100749.09
2022-12-29T01:20:18.421Z,100751.81
2022-12-29T01:23:20.912Z,100763.22
2022-12-29T01:26:23.741Z,100770.56
2022-12-29T01:29:28.101Z,100763.16
2022-12-29T01:32:30.910Z,100755.16
2022-12-29T01:35:34.576Z,100751.59
2022-12-29T01:38:38.361Z,100740.97
2022-12-29T01:41:41.026Z,100741.09
2022-12-29T01:44:59.506Z,100735.81
2022-12-29T01:48:05.023Z,100732.25
2022-12-29T01:51:08.213Z,100743.94
2022-12-29T01:54:25.383Z,100735.56
2022-12-29T01:57:35.106Z,100752.72
2022-12-29T02:00:40.472Z,100737.78
2022-12-29T02:03:43.963Z,100734.88
2022-12-29T02:06:50.904Z,100730.31
2022-12-29T02:09:55.133Z,100722.28
2022-12-29T02:12:57.911Z,100729.94
2022-12-29T02:16:18.013Z,100721.00
2022-12-29T02:19:25.088Z,100710.50
2022-12-29T02:23:07.898Z,100712.41
2022-12-29T02:26:13.339Z,100695.84
2022-12-29T02:29:35.631Z,100710.31
2022-12-29T02:32:47.615Z,100701.56
2022-12-29T02:36:12.971Z,100702.75
2022-12-29T02:39:28.747Z,100713.03
2022-12-29T02:42:59.883Z,100717.66
2022-12-29T02:46:29.073Z,100720.25
2022-12-29T02:49:35.558Z,100705.94
2022-12-29T02:52:43.460Z,100712.06
2022-12-29T02:55:50.687Z,100708.47
2022-12-29T02:58:53.245Z,100711.16
2022-12-29T03:02:18.953Z,100703.41
2022-12-29T03:05:41.276Z,100697.28
2022-12-29T03:08:58.179Z,100698.31
2022-12-29T03:12:18.898Z,100695.50
2022-12-29T03:16:04.372Z,100699.88
2022-12-29T03:19:39.256Z,100693.56
2022-12-29T03:22:47.457Z,100699.81
2022-12-29T03:25:54.095Z,100695.97
2022-12-29T03:28:58.526Z,100697.66
2022-12-29T03:32:02.854Z,100705.69
2022-12-29T03:35:07.011Z,100699.50
2022-12-29T03:38:48.391Z,100697.72
2022-12-29T03:41:54.179Z,100698.66
2022-12-29T03:44:57.607Z,100693.69
2022-12-29T03:48:00.833Z,100690.69
2022-12-29T03:51:03.874Z,100696.94
2022-12-29T03:54:07.292Z,100702.47
2022-12-29T03:57:11.255Z,100692.72
2022-12-29T04:00:14.897Z,100695.13
2022-12-29T04:03:17.590Z,100707.87
2022-12-29T04:06:21.500Z,100685.28
2022-12-29T04:09:24.435Z,100711.22
2022-12-29T04:12:28.445Z,100704.19
2022-12-29T04:15:31.080Z,100705.03
2022-12-29T04:18:33.969Z,100704.78
2022-12-29T04:21:37.193Z,100703.00
2022-12-29T04:24:40.386Z,100706.53
2022-12-29T04:27:44.164Z,100710.03
2022-12-29T04:30:48.946Z,100707.13
2022-12-29T04:33:51.553Z,100704.63
2022-12-29T04:36:54.755Z,100711.97
2022-12-29T04:39:57.789Z,100702.31
2022-12-29T04:43:00.878Z,100701.06
2022-12-29T04:46:03.775Z,100707.34
2022-12-29T04:49:09.874Z,100709.91
2022-12-29T04:52:13.959Z,100706.94
2022-12-29T04:55:17.767Z,100709.66
2022-12-29T04:58:23.181Z,100708.56
2022-12-29T05:01:26.699Z,100712.81
2022-12-29T05:04:29.761Z,100700.31
2022-12-29T05:07:34.561Z,100701.09
2022-12-29T05:10:37.376Z,100699.47
2022-12-29T05:13:40.847Z,100705.66
2022-12-29T05:16:44.188Z,100703.03
2022-12-29T05:19:47.085Z,100697.56
2022-12-29T05:22:49.643Z,100669.62
2022-12-29T05:25:52.914Z,100699.22
2022-12-29T05:28:55.678Z,100705.53
2022-12-29T05:31:59.069Z,100712.75
2022-12-29T05:35:02.421Z,100698.78
2022-12-29T05:38:07.511Z,100696.50
2022-12-29T05:41:10.296Z,100700.63
2022-12-29T05:44:14.706Z,100702.69
2022-12-29T05:47:17.885Z,100704.44
2022-12-29T05:50:21.392Z,100708.09
2022-12-29T05:53:32.023Z,100702.91
2022-12-29T05:56:35.419Z,100701.13
2022-12-29T05:59:38.042Z,100704.97
2022-12-29T06:02:41.304Z,100699.81
2022-12-29T06:05:46.841Z,100696.44
2022-12-29T06:08:50.764Z,100707.25
2022-12-29T06:11:54.818Z,100710.75
2022-12-29T06:14:57.580Z,100711.50
2022-12-29T06:18:00.612Z,100707.97
2022-12-29T06:21:04.730Z,100709.19
2022-12-29T06:24:08.631Z,100696.56
2022-12-29T06:27:12.710Z,100706.16
2022-12-29T06:30:16.035Z,100707.97
2022-12-29T06:33:19.304Z,100706.16
2022-12-29T06:36:22.209Z,100712.16
2022-12-29T06:39:25.210Z,100719.97
2022-12-29T06:42:33.525Z,100715.41
2022-12-29T06:45:40.581Z,100719.78
2022-12-29T06:48:43.462Z,100718.16
2022-12-29T06:51:46.643Z,100727.91
2022-12-29T06:54:49.484Z,100697.34
2022-12-29T06:57:55.703Z,100722.34
2022-12-29T07:00:59.075Z,100724.03
2022-12-29T07:04:01.676Z,100721.53
2022-12-29T07:07:04.611Z,100711.91
2022-12-29T07:10:07.395Z,100712.81
2022-12-29T07:13:10.263Z,100715.78
2022-12-29T07:16:12.925Z,100720.22
2022-12-29T07:19:15.929Z,100718.53
2022-12-29T07:22:19.163Z,100725.81
2022-12-29T07:25:22.578Z,100727.50
2022-12-29T07:28:25.235Z,100731.69
2022-12-29T07:31:28.077Z,100736.81
2022-12-29T07:34:30.735Z,100745.28
2022-12-29T07:37:33.572Z,100729.88
2022-12-29T07:40:37.456Z,100727.00
2022-12-29T07:43:40.355Z,100726.66
2022-12-29T07:46:55.598Z,100731.87
2022-12-29T07:49:59.734Z,100730.66
2022-12-29T07:53:02.912Z,100723.59
2022-12-29T07:56:06.080Z,100729.56
2022-12-29T07:59:09.182Z,100734.06
2022-12-29T08:02:12.801Z,100737.84
2022-12-29T08:05:16.478Z,100736.31
2022-12-29T08:08:19.101Z,100725.16
2022-12-29T08:11:21.936Z,100740.41
2022-12-29T08:14:24.753Z,100731.03
2022-12-29T08:17:27.624Z,100731.28
2022-12-29T08:20:30.242Z,100729.91
2022-12-29T08:23:33.354Z,100732.28
2022-12-29T08:26:35.867Z,100719.09
2022-12-29T08:29:38.741Z,100733.28
2022-12-29T08:32:41.325Z,100731.28
2022-12-29T08:35:44.221Z,100718.84
2022-12-29T08:38:46.991Z,100722.44
2022-12-29T08:41:50.081Z,100724.13
2022-12-29T08:44:52.655Z,100735.84
2022-12-29T08:47:55.528Z,100725.50
2022-12-29T08:50:58.073Z,100720.41
2022-12-29T08:54:01.440Z,100718.87
2022-12-29T08:57:04.136Z,100730.62
2022-12-29T09:00:08.642Z,100718.59
2022-12-29T09:03:11.403Z,100721.50
2022-12-29T09:06:15.835Z,100723.31
2022-12-29T09:09:19.282Z,100724.50
2022-12-29T09:12:22.161Z,100729.16
2022-12-29T09:15:24.764Z,100732.84
2022-12-29T09:18:27.642Z,100733.88
2022-12-29T09:21:30.384Z,100721.72
2022-12-29T09:24:33.599Z,100721.87
2022-12-29T09:27:36.763Z,100722.97
2022-12-29T09:30:40.477Z,100722.25
2022-12-29T09:33:43.326Z,100705.56
2022-12-29T09:36:46.234Z,100706.66
2022-12-29T09:39:54.039Z,100704.13
2022-12-29T09:43:03.486Z,100698.97
2022-12-29T09:46:30.757Z,100693.63
2022-12-29T09:49:43.459Z,100690.19
2022-12-29T09:52:51.755Z,100693.06
2022-12-29T09:55:57.144Z,100686.06
2022-12-29T09:59:11.205Z,100673.88
2022-12-29T10:02:41.341Z,100660.59
2022-12-29T10:06:32.706Z,100665.13
2022-12-29T10:09:51.829Z,100636.13
2022-12-29T10:13:03.574Z,100638.19
2022-12-29T10:16:15.034Z,100651.81
2022-12-29T10:19:39.514Z,100657.06
2022-12-29T10:23:26.578Z,100642.00
2022-12-29T10:26:32.808Z,100652.81
2022-12-29T10:29:40.142Z,100662.69
2022-12-29T10:32:49.595Z,100666.28
2022-12-29T10:35:52.322Z,100657.63
2022-12-29T10:39:23.105Z,100653.19
2022-12-29T10:42:38.441Z,100632.97
2022-12-29T10:45:41.617Z,100625.12
2022-12-29T10:48:46.437Z,100627.75
2022-12-29T10:51:50.067Z,100626.84
2022-12-29T10:54:57.399Z,100610.13
2022-12-29T10:58:05.827Z,100633.13
2022-12-29T11:01:10.542Z,100633.13
2022-12-29T11:04:22.999Z,100629.53
2022-12-29T11:07:27.777Z,100632.25
2022-12-29T11:10:42.195Z,100630.56
2022-12-29T11:13:56.123Z,100630.72
2022-12-29T11:17:00.804Z,100636.06
2022-12-29T11:20:25.983Z,100630.06
2022-12-29T11:23:34.983Z,100640.84
2022-12-29T11:26:37.607Z,100640.03
2022-12-29T11:29:42.697Z,100637.53
2022-12-29T11:32:53.523Z,100630.59
2022-12-29T11:36:02.455Z,100635.97
2022-12-29T11:39:10.471Z,100625.38
2022-12-29T11:42:20.183Z,100640.47
2022-12-29T11:45:28.649Z,100628.13
2022-12-29T11:48:41.680Z,100628.97
2022-12-29T11:51:46.911Z,100626.50
2022-12-29T11:54:49.892Z,100635.25
2022-12-29T11:57:54.044Z,100621.94
2022-12-29T12:00:57.990Z,100615.84
2022-12-29T12:04:03.348Z,100629.06
2022-12-29T12:07:08.840Z,100609.78
2022-12-29T12:10:21.197Z,100618.81
2022-12-29T12:13:32.714Z,100609.97
2022-12-29T12:16:40.603Z,100609.19
2022-12-29T12:19:48.304Z,100601.22
2022-12-29T12:23:03.805Z,100595.91
2022-12-29T12:26:33.541Z,100600.25
2022-12-29T12:29:51.368Z,100587.16
2022-12-29T12:32:53.959Z,100576.37
2022-12-29T12:36:08.926Z,100574.78
2022-12-29T12:39:24.611Z,100572.97
2022-12-29T12:42:41.732Z,100565.91
2022-12-29T12:45:54.953Z,100566.78
2022-12-29T12:49:22.518Z,100558.00
2022-12-29T12:52:54.106Z,100539.47
2022-12-29T12:56:38.860Z,100547.66
2022-12-29T12:59:54.173Z,100553.81
2022-12-29T13:03:11.831Z,100550.22
2022-12-29T13:06:20.709Z,100550.25
2022-12-29T13:10:00.244Z,100557.47
2022-12-29T13:13:27.618Z,100548.66
2022-12-29T13:16:38.511Z,100561.00
2022-12-29T13:20:04.095Z,100555.78
2022-12-29T13:23:09.409Z,100562.87
2022-12-29T13:26:43.720Z,100569.09
2022-12-29T13:29:56.338Z,100564.75
2022-12-29T13:33:20.939Z,100571.88
2022-12-29T13:36:29.506Z,100576.44
2022-12-29T13:39:36.077Z,100570.81
2022-12-29T13:42:39.523Z,100569.88
2022-12-29T13:45:43.120Z,100569.88
2022-12-29T13:48:56.755Z,100576.28
2022-12-29T13:52:25.496Z,100569.28
2022-12-29T13:55:33.665Z,100569.97
2022-12-29T13:59:09.728Z,100570.78
2022-12-29T14:02:37.723Z,100574.28
2022-12-29T14:05:40.788Z,100576.91
2022-12-29T14:08:44.959Z,100575.06
2022-12-29T14:11:47.863Z,100575.78
2022-12-29T14:14:50.633Z,100575.69
2022-12-29T14:18:19.009Z,100582.56
2022-12-29T14:21:23.769Z,100573.56
2022-12-29T14:24:41.466Z,100580.59
2022-12-29T14:27:45.646Z,100583.00
2022-12-29T14:30:51.272Z,100577.72
2022-12-29T14:34:12.334Z,100573.72
2022-12-29T14:37:28.960Z,100577.41
2022-12-29T14:40:31.598Z,100580.13
2022-12-29T14:43:34.455Z,100577.66
2022-12-29T14:46:58.915Z,100589.25
2022-12-29T14:50:09.739Z,100591.88
2022-12-29T14:53:45.859Z,100588.22
2022-12-29T14:56:48.868Z,100588.16
2022-12-29T14:59:56.342Z,100588.84
2022-12-29T15:03:07.996Z,100590.28
2022-12-29T15:06:12.827Z,100590.81
2022-12-29T15:09:26.586Z,100593.09
2022-12-29T15:12:40.580Z,100587.72
2022-12-29T15:15:43.443Z,100591.78
2022-12-29T15:18:45.997Z,100595.03
2022-12-29T15:21:49.074Z,100599.31
2022-12-29T15:24:53.707Z,100596.66
2022-12-29T15:28:03.609Z,100593.00
2022-12-29T15:31:12.750Z,100590.28
2022-12-29T15:34:15.966Z,100578.66
2022-12-29T15:37:26.739Z,100584.69
2022-12-29T15:40:32.358Z,100590.69
2022-12-29T15:44:10.741Z,100586.03
2022-12-29T15:47:26.023Z,100583.22
2022-12-29T15:50:28.713Z,100577.84
2022-12-29T15:53:33.669Z,100568.09
2022-12-29T15:56:36.328Z,100578.50
2022-12-29T15:59:47.193Z,100570.34
2022-12-29T16:02:50.067Z,100576.41
2022-12-29T16:06:11.891Z,100582.38
2022-12-29T16:09:19.758Z,100576.94
2022-12-29T16:12:25.255Z,100584.00
2022-12-29T16:15:29.065Z,100591.88
2022-12-29T16:18:36.032Z,100596.13
2022-12-29T16:21:38.726Z,100592.69
2022-12-29T16:24:41.843Z,100586.56
2022-12-29T16:27:44.800Z,100583.88
2022-12-29T16:30:47.983Z,100593.06
2022-12-29T16:33:53.336Z,100583.22
2022-12-29T16:37:22.141Z,100587.59
2022-12-29T16:40:32.203Z,100583.91
2022-12-29T16:43:42.650Z,100580.50
2022-12-29T16:47:03.053Z,100573.56
2022-12-29T16:50:14.037Z,100578.69
2022-12-29T16:53:28.674Z,100581.31
2022-12-29T16:56:34.681Z,100583.00
2022-12-29T16:59:40.436Z,100586.37
2022-12-29T17:02:46.110Z,100578.47
2022-12-29T17:05:54.029Z,100586.75
2022-12-29T17:08:59.407Z,100589.59
2022-12-29T17:12:10.651Z,100578.88
2022-12-29T17:15:28.226Z,100576.09
2022-12-29T17:18:31.078Z,100575.91
2022-12-29T17:21:33.823Z,100585.25
2022-12-29T17:24:37.118Z,100591.62
2022-12-29T17:28:01.039Z,100583.41
2022-12-29T17:31:06.911Z,100588.53
2022-12-29T17:34:12.756Z,100590.81
2022-12-29T17:37:36.886Z,100586.37
2022-12-29T17:40:39.677Z,100576.56
2022-12-29T17:43:42.249Z,100574.19
2022-12-29T17:46:46.384Z,100580.06
2022-12-29T17:49:49.470Z,100560.28
2022-12-29T17:53:00.729Z,100586.19
2022-12-29T17:56:03.639Z,100591.25
2022-12-29T17:59:12.502Z,100591.28
2022-12-29T18:02:31.681Z,100591.44
2022-12-29T18:05:34.981Z,100590.50
2022-12-29T18:08:38.794Z,100589.34
2022-12-29T18:11:43.466Z,100575.06
2022-12-29T18:14:46.062Z,100588.09
2022-12-29T18:17:49.332Z,100585.16
2022-12-29T18:20:54.379Z,100577.38
2022-12-29T18:23:57.264Z,100586.91
2022-12-29T18:27:00.149Z,100584.56
2022-12-29T18:30:03.261Z,100586.97
2022-12-29T18:33:07.126Z,100577.31
2022-12-29T18:36:11.417Z,100572.69
2022-12-29T18:39:14.180Z,100574.31
2022-12-29T18:42:18.125Z,100565.47
2022-12-29T18:45:23.396Z,100565.69
2022-12-29T18:48:26.389Z,100562.19
2022-12-29T18:51:29.038Z,100567.78
2022-12-29T18:54:33.312Z,100571.53
2022-12-29T18:57:35.950Z,100572.09
2022-12-29T19:00:39.516Z,100570.28
2022-12-29T19:03:42.489Z,100567.94
2022-12-29T19:06:45.938Z,100565.00
2022-12-29T19:09:48.491Z,100565.09
2022-12-29T19:12:52.234Z,100563.19
2022-12-29T19:15:58.509Z,100563.16
2022-12-29T19:19:10.073Z,100560.34
2022-12-29T19:22:12.766Z,100560.34
2022-12-29T19:25:15.796Z,100555.84
2022-12-29T19:28:21.759Z,100553.09
2022-12-29T19:31:24.876Z,100552.37
2022-12-29T19:34:27.693Z,100556.69
2022-12-29T19:37:30.481Z,100560.47
2022-12-29T19:40:33.546Z,100556.84
2022-12-29T19:43:36.457Z,100568.28
2022-12-29T19:46:39.153Z,100562.19
2022-12-29T19:49:43.447Z,100575.22
2022-12-29T19:52:46.098Z,100570.62
2022-12-29T19:55:48.995Z,100569.81
2022-12-29T19:58:51.655Z,100571.53
2022-12-29T20:01:55.059Z,100567.13
2022-12-29T20:04:58.160Z,100565.41
2022-12-29T20:08:00.729Z,100573.31
2022-12-29T20:11:13.617Z,100560.03
2022-12-29T20:14:16.328Z,100563.63
2022-12-29T20:17:32.623Z,100559.47
2022-12-29T20:20:42.849Z,100561.12
2022-12-29T20:23:46.303Z,100552.34
2022-12-29T20:26:49.473Z,100557.72
2022-12-29T20:29:52.374Z,100548.87
2022-12-29T20:32:54.972Z,100553.25
2022-12-29T20:36:17.761Z,100555.87
2022-12-29T20:39:20.510Z,100569.88
2022-12-29T20:42:23.472Z,100557.47
2022-12-29T20:45:26.539Z,100564.56
2022-12-29T20:48:30.380Z,100557.44
2022-12-29T20:52:04.641Z,100558.97
2022-12-29T20:54:55.895Z,100561.41
2022-12-29T20:58:22.994Z,100553.38
2022-12-29T21:01:24.383Z,100538.41
2022-12-29T21:04:27.466Z,100553.31
2022-12-29T21:07:30.306Z,100544.59
2022-12-29T21:10:32.884Z,100545.22
2022-12-29T21:13:35.950Z,100550.53
2022-12-29T21:16:38.828Z,100557.50
2022-12-29T21:19:41.832Z,100547.62
2022-12-29T21:22:44.943Z,100558.22
2022-12-29T21:25:47.893Z,100551.22
2022-12-29T21:28:51.074Z,100555.34
2022-12-29T21:31:54.209Z,100546.63
2022-12-29T21:34:56.733Z,100537.00
2022-12-29T21:37:59.496Z,100531.84
2022-12-29T21:41:09.825Z,100532.53
2022-12-29T21:44:30.955Z,100523.59
2022-12-29T21:47:52.842Z,100544.53
2022-12-29T21:51:31.853Z,100546.22
2022-12-29T21:54:52.798Z,100540.88
2022-12-29T21:58:14.204Z,100540.78
2022-12-29T22:01:35.976Z,100537.25
2022-12-29T22:04:57.616Z,100539.94
2022-12-29T22:08:18.929Z,100552.22
2022-12-29T22:11:40.440Z,100538.94
2022-12-29T22:14:43.001Z,100542.53
2022-12-29T22:17:48.992Z,100536.34
2022-12-29T22:20:51.800Z,100534.34
2022-12-29T22:23:54.637Z,100525.50
2022-12-29T22:26:57.159Z,100526.50
2022-12-29T22:30:00.038Z,100535.37
2022-12-29T22:33:02.830Z,100537.81
2022-12-29T22:36:06.081Z,100535.91
2022-12-29T22:39:09.694Z,100534.22
2022-12-29T22:42:12.710Z,100534.44
2022-12-29T22:45:15.490Z,100531.56
2022-12-29T22:48:18.335Z,100521.06
2022-12-29T22:51:20.850Z,100519.53
2022-12-29T22:54:23.905Z,100521.06
2022-12-29T22:57:26.393Z,100514.66
2022-12-29T23:00:29.344Z,100516.88
2022-12-29T23:03:31.992Z,100511.69
2022-12-29T23:06:35.378Z,100510.78
2022-12-29T23:09:38.086Z,100513.34
2022-12-29T23:12:41.179Z,100503.59
2022-12-29T23:15:43.812Z,100510.69
2022-12-29T23:18:48.186Z,100505.41
2022-12-29T23:21:53.508Z,100502.69
2022-12-29T23:24:56.548Z,100497.41
2022-12-29T23:27:59.351Z,100501.97
2022-12-29T23:31:02.384Z,100492.38
2022-12-29T23:34:06.228Z,100482.38
2022-12-29T23:37:09.284Z,100489.44
2022-12-29T23:40:12.290Z,100482.22
2022-12-29T23:43:15.249Z,100480.53
2022-12-29T23:46:20.737Z,100483.97
2022-12-29T23:49:24.015Z,100474.41
2022-12-29T23:52:26.566Z,100476.25
2022-12-29T23:55:29.490Z,100478.00
2022-12-29T23:58:33.555Z,100496.72
